sensor_id;sensor_type;location;lat;lon;timestamp;P1;durP1;ratioP1;P2;durP2;ratioP2
46455;SDS011;64052;47.466;9.094;2023-04-06T00:04:06;8.30;;;6.90;;
46455;SDS011;64052;47.466;9.094;2023-04-06T00:09:08;7.00;;;6.15;;
46455;SDS011;64052;47.466;9.094;2023-04-06T00:14:10;8.82;;;6.80;;
46455;SDS011;64052;47.466;9.094;2023-04-06T00:19:11;9.35;;;6.78;;
46455;SDS011;64052;47.466;9.094;2023-04-06T00:24:13;8.35;;;6.88;;
46455;SDS011;64052;47.466;9.094;2023-04-06T00:29:14;11.55;;;7.43;;
46455;SDS011;64052;47.466;9.094;2023-04-06T00:34:15;7.47;;;6.70;;
46455;SDS011;64052;47.466;9.094;2023-04-06T00:39:17;8.00;;;7.10;;
46455;SDS011;64052;47.466;9.094;2023-04-06T00:44:21;9.48;;;7.38;;
46455;SDS011;64052;47.466;9.094;2023-04-06T00:49:23;9.38;;;7.70;;
46455;SDS011;64052;47.466;9.094;2023-04-06T00:54:25;8.73;;;6.70;;
46455;SDS011;64052;47.466;9.094;2023-04-06T00:59:27;7.90;;;6.47;;
46455;SDS011;64052;47.466;9.094;2023-04-06T01:04:31;10.45;;;7.45;;
46455;SDS011;64052;47.466;9.094;2023-04-06T01:09:34;8.32;;;6.25;;
46455;SDS011;64052;47.466;9.094;2023-04-06T01:14:40;8.63;;;7.55;;
46455;SDS011;64052;47.466;9.094;2023-04-06T01:19:42;7.95;;;7.15;;
46455;SDS011;64052;47.466;9.094;2023-04-06T01:24:51;7.43;;;6.60;;
46455;SDS011;64052;47.466;9.094;2023-04-06T01:30:00;8.18;;;6.78;;
46455;SDS011;64052;47.466;9.094;2023-04-06T01:35:17;8.27;;;7.32;;
46455;SDS011;64052;47.466;9.094;2023-04-06T01:40:30;9.45;;;6.88;;
46455;SDS011;64052;47.466;9.094;2023-04-06T01:45:32;10.25;;;8.18;;
46455;SDS011;64052;47.466;9.094;2023-04-06T01:50:43;8.73;;;6.30;;
46455;SDS011;64052;47.466;9.094;2023-04-06T01:55:48;9.00;;;7.25;;
46455;SDS011;64052;47.466;9.094;2023-04-06T02:00:57;7.20;;;6.50;;
46455;SDS011;64052;47.466;9.094;2023-04-06T02:06:02;9.52;;;7.05;;
46455;SDS011;64052;47.466;9.094;2023-04-06T02:11:09;7.93;;;6.32;;
46455;SDS011;64052;47.466;9.094;2023-04-06T02:16:19;8.38;;;6.57;;
46455;SDS011;64052;47.466;9.094;2023-04-06T02:21:20;7.85;;;6.70;;
46455;SDS011;64052;47.466;9.094;2023-04-06T02:26:22;8.13;;;6.88;;
46455;SDS011;64052;47.466;9.094;2023-04-06T02:31:23;6.95;;;6.25;;
46455;SDS011;64052;47.466;9.094;2023-04-06T02:36:26;8.43;;;7.40;;
46455;SDS011;64052;47.466;9.094;2023-04-06T02:41:28;8.73;;;6.45;;
46455;SDS011;64052;47.466;9.094;2023-04-06T02:46:31;10.00;;;7.18;;
46455;SDS011;64052;47.466;9.094;2023-04-06T02:51:33;9.25;;;6.75;;
46455;SDS011;64052;47.466;9.094;2023-04-06T02:56:48;8.45;;;6.22;;
46455;SDS011;64052;47.466;9.094;2023-04-06T03:01:51;12.18;;;6.97;;
46455;SDS011;64052;47.466;9.094;2023-04-06T03:06:53;9.25;;;6.32;;
46455;SDS011;64052;47.466;9.094;2023-04-06T03:12:06;8.10;;;6.10;;
46455;SDS011;64052;47.466;9.094;2023-04-06T03:17:26;8.20;;;6.15;;
46455;SDS011;64052;47.466;9.094;2023-04-06T03:22:32;9.75;;;6.18;;
46455;SDS011;64052;47.466;9.094;2023-04-06T03:27:35;7.82;;;6.15;;
46455;SDS011;64052;47.466;9.094;2023-04-06T03:32:39;8.15;;;6.85;;
46455;SDS011;64052;47.466;9.094;2023-04-06T03:37:40;8.80;;;6.25;;
46455;SDS011;64052;47.466;9.094;2023-04-06T03:42:42;7.35;;;6.43;;
46455;SDS011;64052;47.466;9.094;2023-04-06T03:47:47;8.70;;;6.20;;
46455;SDS011;64052;47.466;9.094;2023-04-06T03:52:49;7.88;;;6.10;;
46455;SDS011;64052;47.466;9.094;2023-04-06T03:57:50;9.52;;;6.20;;
46455;SDS011;64052;47.466;9.094;2023-04-06T04:02:52;7.75;;;6.55;;
46455;SDS011;64052;47.466;9.094;2023-04-06T04:07:54;7.80;;;6.15;;
46455;SDS011;64052;47.466;9.094;2023-04-06T04:13:00;7.90;;;5.85;;
46455;SDS011;64052;47.466;9.094;2023-04-06T04:18:01;8.50;;;6.97;;
46455;SDS011;64052;47.466;9.094;2023-04-06T04:23:03;9.88;;;7.00;;
46455;SDS011;64052;47.466;9.094;2023-04-06T04:28:07;9.18;;;6.65;;
46455;SDS011;64052;47.466;9.094;2023-04-06T04:33:09;7.85;;;6.53;;
46455;SDS011;64052;47.466;9.094;2023-04-06T04:38:11;10.30;;;7.15;;
46455;SDS011;64052;47.466;9.094;2023-04-06T04:43:16;8.80;;;6.68;;
46455;SDS011;64052;47.466;9.094;2023-04-06T04:48:18;10.27;;;5.68;;
46455;SDS011;64052;47.466;9.094;2023-04-06T04:53:25;9.80;;;7.57;;
46455;SDS011;64052;47.466;9.094;2023-04-06T04:58:34;11.30;;;8.10;;
46455;SDS011;64052;47.466;9.094;2023-04-06T05:03:36;8.90;;;6.85;;
46455;SDS011;64052;47.466;9.094;2023-04-06T05:08:41;7.82;;;6.38;;
46455;SDS011;64052;47.466;9.094;2023-04-06T05:13:43;9.70;;;7.30;;
46455;SDS011;64052;47.466;9.094;2023-04-06T05:18:55;7.95;;;6.95;;
46455;SDS011;64052;47.466;9.094;2023-04-06T05:24:01;13.10;;;9.10;;
46455;SDS011;64052;47.466;9.094;2023-04-06T05:29:05;11.70;;;7.15;;
46455;SDS011;64052;47.466;9.094;2023-04-06T05:34:10;9.68;;;6.43;;
46455;SDS011;64052;47.466;9.094;2023-04-06T05:39:15;11.93;;;7.45;;
46455;SDS011;64052;47.466;9.094;2023-04-06T05:44:23;9.18;;;6.68;;
46455;SDS011;64052;47.466;9.094;2023-04-06T05:49:35;9.20;;;7.13;;
46455;SDS011;64052;47.466;9.094;2023-04-06T05:54:38;9.07;;;6.78;;
46455;SDS011;64052;47.466;9.094;2023-04-06T05:59:40;9.73;;;7.18;;
46455;SDS011;64052;47.466;9.094;2023-04-06T06:04:44;7.68;;;6.05;;
46455;SDS011;64052;47.466;9.094;2023-04-06T06:09:46;8.93;;;6.75;;
46455;SDS011;64052;47.466;9.094;2023-04-06T06:14:54;9.68;;;7.63;;
46455;SDS011;64052;47.466;9.094;2023-04-06T06:19:58;9.45;;;6.47;;
46455;SDS011;64052;47.466;9.094;2023-04-06T06:25:02;9.00;;;7.55;;
46455;SDS011;64052;47.466;9.094;2023-04-06T06:30:04;8.75;;;6.43;;
46455;SDS011;64052;47.466;9.094;2023-04-06T06:35:07;9.38;;;6.35;;
46455;SDS011;64052;47.466;9.094;2023-04-06T06:40:09;11.00;;;7.85;;
46455;SDS011;64052;47.466;9.094;2023-04-06T06:45:11;7.82;;;6.55;;
46455;SDS011;64052;47.466;9.094;2023-04-06T06:50:14;8.60;;;7.30;;
46455;SDS011;64052;47.466;9.094;2023-04-06T06:55:16;7.95;;;6.35;;
46455;SDS011;64052;47.466;9.094;2023-04-06T07:00:18;9.10;;;6.70;;
46455;SDS011;64052;47.466;9.094;2023-04-06T07:05:20;11.73;;;8.07;;
46455;SDS011;64052;47.466;9.094;2023-04-06T07:10:31;9.57;;;6.32;;
46455;SDS011;64052;47.466;9.094;2023-04-06T07:15:32;9.05;;;6.68;;
46455;SDS011;64052;47.466;9.094;2023-04-06T07:20:34;9.90;;;6.68;;
46455;SDS011;64052;47.466;9.094;2023-04-06T07:25:37;9.50;;;7.32;;
46455;SDS011;64052;47.466;9.094;2023-04-06T07:30:38;10.05;;;8.13;;
46455;SDS011;64052;47.466;9.094;2023-04-06T07:35:42;12.73;;;8.27;;
46455;SDS011;64052;47.466;9.094;2023-04-06T07:40:45;11.68;;;7.72;;
46455;SDS011;64052;47.466;9.094;2023-04-06T07:45:48;10.10;;;7.32;;
46455;SDS011;64052;47.466;9.094;2023-04-06T07:51:04;9.68;;;7.55;;
46455;SDS011;64052;47.466;9.094;2023-04-06T07:56:12;9.75;;;7.47;;
46455;SDS011;64052;47.466;9.094;2023-04-06T08:01:16;11.90;;;7.80;;
46455;SDS011;64052;47.466;9.094;2023-04-06T08:06:20;10.38;;;7.80;;
46455;SDS011;64052;47.466;9.094;2023-04-06T08:11:31;9.90;;;6.88;;
46455;SDS011;64052;47.466;9.094;2023-04-06T08:16:34;9.95;;;7.60;;
46455;SDS011;64052;47.466;9.094;2023-04-06T08:21:35;9.38;;;7.75;;
46455;SDS011;64052;47.466;9.094;2023-04-06T08:26:37;8.30;;;7.07;;
46455;SDS011;64052;47.466;9.094;2023-04-06T08:31:41;9.95;;;8.32;;
46455;SDS011;64052;47.466;9.094;2023-04-06T08:36:45;8.45;;;7.28;;
46455;SDS011;64052;47.466;9.094;2023-04-06T08:41:51;9.13;;;7.75;;
46455;SDS011;64052;47.466;9.094;2023-04-06T08:46:57;9.70;;;6.85;;
46455;SDS011;64052;47.466;9.094;2023-04-06T08:52:02;10.13;;;7.63;;
46455;SDS011;64052;47.466;9.094;2023-04-06T08:57:06;9.27;;;7.15;;
46455;SDS011;64052;47.466;9.094;2023-04-06T09:02:08;9.07;;;7.97;;
46455;SDS011;64052;47.466;9.094;2023-04-06T09:12:42;9.55;;;6.88;;
46455;SDS011;64052;47.466;9.094;2023-04-06T09:17:44;10.38;;;7.57;;
46455;SDS011;64052;47.466;9.094;2023-04-06T09:28:09;9.00;;;6.57;;
46455;SDS011;64052;47.466;9.094;2023-04-06T09:33:11;8.55;;;6.32;;
46455;SDS011;64052;47.466;9.094;2023-04-06T09:43:36;6.40;;;5.60;;
46455;SDS011;64052;47.466;9.094;2023-04-06T09:48:38;9.25;;;6.72;;
46455;SDS011;64052;47.466;9.094;2023-04-06T09:53:40;7.95;;;6.43;;
46455;SDS011;64052;47.466;9.094;2023-04-06T09:58:45;6.95;;;5.30;;
46455;SDS011;64052;47.466;9.094;2023-04-06T10:09:05;8.52;;;6.30;;
46455;SDS011;64052;47.466;9.094;2023-04-06T10:14:09;7.78;;;5.93;;
46455;SDS011;64052;47.466;9.094;2023-04-06T10:19:16;8.48;;;6.53;;
46455;SDS011;64052;47.466;9.094;2023-04-06T10:24:23;6.80;;;5.53;;
46455;SDS011;64052;47.466;9.094;2023-04-06T10:29:25;7.43;;;5.28;;
46455;SDS011;64052;47.466;9.094;2023-04-06T10:34:34;8.63;;;5.63;;
46455;SDS011;64052;47.466;9.094;2023-04-06T10:39:54;6.07;;;4.88;;
46455;SDS011;64052;47.466;9.094;2023-04-06T10:44:55;7.25;;;4.80;;
46455;SDS011;64052;47.466;9.094;2023-04-06T10:49:58;8.23;;;5.18;;
46455;SDS011;64052;47.466;9.094;2023-04-06T10:54:59;6.13;;;4.82;;
46455;SDS011;64052;47.466;9.094;2023-04-06T11:00:05;5.50;;;4.15;;
46455;SDS011;64052;47.466;9.094;2023-04-06T11:05:11;8.45;;;4.28;;
46455;SDS011;64052;47.466;9.094;2023-04-06T11:21:00;7.95;;;5.28;;
46455;SDS011;64052;47.466;9.094;2023-04-06T11:31:40;7.18;;;4.85;;
46455;SDS011;64052;47.466;9.094;2023-04-06T11:36:43;5.03;;;4.35;;
46455;SDS011;64052;47.466;9.094;2023-04-06T11:47:09;6.75;;;4.65;;
46455;SDS011;64052;47.466;9.094;2023-04-06T11:52:16;7.00;;;4.80;;
46455;SDS011;64052;47.466;9.094;2023-04-06T11:57:18;6.88;;;5.50;;
46455;SDS011;64052;47.466;9.094;2023-04-06T12:02:20;7.43;;;4.63;;
46455;SDS011;64052;47.466;9.094;2023-04-06T12:07:22;5.97;;;4.68;;
46455;SDS011;64052;47.466;9.094;2023-04-06T12:12:26;8.10;;;5.93;;
46455;SDS011;64052;47.466;9.094;2023-04-06T12:17:28;5.80;;;3.60;;
46455;SDS011;64052;47.466;9.094;2023-04-06T12:22:29;6.07;;;4.13;;
46455;SDS011;64052;47.466;9.094;2023-04-06T12:27:31;5.97;;;4.40;;
46455;SDS011;64052;47.466;9.094;2023-04-06T12:32:33;6.00;;;4.13;;
46455;SDS011;64052;47.466;9.094;2023-04-06T12:37:34;6.28;;;4.35;;
46455;SDS011;64052;47.466;9.094;2023-04-06T12:42:36;7.72;;;5.72;;
46455;SDS011;64052;47.466;9.094;2023-04-06T12:47:39;5.05;;;4.10;;
46455;SDS011;64052;47.466;9.094;2023-04-06T12:52:40;6.38;;;3.60;;
46455;SDS011;64052;47.466;9.094;2023-04-06T12:57:42;8.05;;;4.82;;
46455;SDS011;64052;47.466;9.094;2023-04-06T13:02:44;7.55;;;5.07;;
46455;SDS011;64052;47.466;9.094;2023-04-06T13:07:46;6.60;;;4.05;;
46455;SDS011;64052;47.466;9.094;2023-04-06T13:12:47;7.05;;;5.28;;
46455;SDS011;64052;47.466;9.094;2023-04-06T13:17:49;7.18;;;5.20;;
46455;SDS011;64052;47.466;9.094;2023-04-06T13:22:50;6.30;;;4.78;;
46455;SDS011;64052;47.466;9.094;2023-04-06T13:27:52;7.70;;;5.10;;
46455;SDS011;64052;47.466;9.094;2023-04-06T13:32:54;5.35;;;4.10;;
46455;SDS011;64052;47.466;9.094;2023-04-06T13:37:57;5.13;;;4.00;;
46455;SDS011;64052;47.466;9.094;2023-04-06T13:43:04;5.25;;;3.92;;
46455;SDS011;64052;47.466;9.094;2023-04-06T13:53:29;6.28;;;4.05;;
46455;SDS011;64052;47.466;9.094;2023-04-06T13:58:31;4.53;;;3.20;;
46455;SDS011;64052;47.466;9.094;2023-04-06T14:03:33;5.50;;;3.80;;
46455;SDS011;64052;47.466;9.094;2023-04-06T14:08:36;5.18;;;3.72;;
46455;SDS011;64052;47.466;9.094;2023-04-06T14:13:38;2.92;;;2.47;;
46455;SDS011;64052;47.466;9.094;2023-04-06T14:18:40;5.22;;;3.30;;
46455;SDS011;64052;47.466;9.094;2023-04-06T14:23:41;4.88;;;3.72;;
46455;SDS011;64052;47.466;9.094;2023-04-06T14:28:44;4.53;;;3.20;;
46455;SDS011;64052;47.466;9.094;2023-04-06T14:33:46;5.75;;;4.78;;
46455;SDS011;64052;47.466;9.094;2023-04-06T14:38:48;6.18;;;4.70;;
46455;SDS011;64052;47.466;9.094;2023-04-06T14:43:50;4.32;;;3.65;;
46455;SDS011;64052;47.466;9.094;2023-04-06T14:48:53;5.03;;;3.63;;
46455;SDS011;64052;47.466;9.094;2023-04-06T14:53:56;5.78;;;3.90;;
46455;SDS011;64052;47.466;9.094;2023-04-06T14:58:58;7.78;;;4.13;;
46455;SDS011;64052;47.466;9.094;2023-04-06T15:04:00;7.03;;;4.18;;
46455;SDS011;64052;47.466;9.094;2023-04-06T15:09:03;7.30;;;4.75;;
46455;SDS011;64052;47.466;9.094;2023-04-06T15:14:05;5.75;;;4.40;;
46455;SDS011;64052;47.466;9.094;2023-04-06T15:19:07;6.40;;;5.07;;
46455;SDS011;64052;47.466;9.094;2023-04-06T15:24:09;5.97;;;4.40;;
46455;SDS011;64052;47.466;9.094;2023-04-06T15:29:10;5.07;;;4.57;;
46455;SDS011;64052;47.466;9.094;2023-04-06T15:34:12;5.93;;;4.65;;
46455;SDS011;64052;47.466;9.094;2023-04-06T15:39:13;7.55;;;5.47;;
46455;SDS011;64052;47.466;9.094;2023-04-06T15:44:15;4.78;;;3.88;;
46455;SDS011;64052;47.466;9.094;2023-04-06T15:49:16;4.85;;;4.00;;
46455;SDS011;64052;47.466;9.094;2023-04-06T15:54:18;5.53;;;4.18;;
46455;SDS011;64052;47.466;9.094;2023-04-06T15:59:19;5.55;;;3.75;;
46455;SDS011;64052;47.466;9.094;2023-04-06T16:04:21;5.38;;;4.05;;
46455;SDS011;64052;47.466;9.094;2023-04-06T16:09:22;5.68;;;4.70;;
46455;SDS011;64052;47.466;9.094;2023-04-06T16:14:24;4.75;;;3.72;;
46455;SDS011;64052;47.466;9.094;2023-04-06T16:19:26;6.32;;;4.28;;
46455;SDS011;64052;47.466;9.094;2023-04-06T16:24:27;5.60;;;3.60;;
46455;SDS011;64052;47.466;9.094;2023-04-06T16:29:29;4.93;;;3.60;;
46455;SDS011;64052;47.466;9.094;2023-04-06T16:34:31;5.75;;;3.33;;
46455;SDS011;64052;47.466;9.094;2023-04-06T16:39:33;4.40;;;3.70;;
46455;SDS011;64052;47.466;9.094;2023-04-06T16:44:35;4.68;;;3.10;;
46455;SDS011;64052;47.466;9.094;2023-04-06T16:49:36;5.00;;;3.50;;
46455;SDS011;64052;47.466;9.094;2023-04-06T16:54:38;5.80;;;4.32;;
46455;SDS011;64052;47.466;9.094;2023-04-06T16:59:39;6.57;;;3.92;;
46455;SDS011;64052;47.466;9.094;2023-04-06T17:04:41;4.55;;;3.35;;
46455;SDS011;64052;47.466;9.094;2023-04-06T17:09:43;4.78;;;3.50;;
46455;SDS011;64052;47.466;9.094;2023-04-06T17:14:44;5.68;;;4.68;;
46455;SDS011;64052;47.466;9.094;2023-04-06T17:19:46;7.50;;;5.00;;
46455;SDS011;64052;47.466;9.094;2023-04-06T17:24:47;5.00;;;3.92;;
46455;SDS011;64052;47.466;9.094;2023-04-06T17:29:49;5.90;;;4.38;;
46455;SDS011;64052;47.466;9.094;2023-04-06T17:34:50;4.82;;;4.22;;
46455;SDS011;64052;47.466;9.094;2023-04-06T17:39:52;7.05;;;5.22;;
46455;SDS011;64052;47.466;9.094;2023-04-06T17:44:56;7.03;;;5.28;;
46455;SDS011;64052;47.466;9.094;2023-04-06T17:49:59;5.75;;;5.10;;
46455;SDS011;64052;47.466;9.094;2023-04-06T17:55:01;6.32;;;5.30;;
46455;SDS011;64052;47.466;9.094;2023-04-06T18:00:04;5.80;;;4.35;;
46455;SDS011;64052;47.466;9.094;2023-04-06T18:05:06;5.95;;;4.55;;
46455;SDS011;64052;47.466;9.094;2023-04-06T18:10:07;6.32;;;4.22;;
46455;SDS011;64052;47.466;9.094;2023-04-06T18:15:09;7.07;;;5.28;;
46455;SDS011;64052;47.466;9.094;2023-04-06T18:20:11;5.53;;;4.55;;
46455;SDS011;64052;47.466;9.094;2023-04-06T18:25:15;7.43;;;4.90;;
46455;SDS011;64052;47.466;9.094;2023-04-06T18:30:17;6.07;;;4.28;;
46455;SDS011;64052;47.466;9.094;2023-04-06T18:35:19;6.13;;;4.97;;
46455;SDS011;64052;47.466;9.094;2023-04-06T18:40:36;7.40;;;5.85;;
46455;SDS011;64052;47.466;9.094;2023-04-06T18:45:39;6.38;;;5.00;;
46455;SDS011;64052;47.466;9.094;2023-04-06T18:50:44;5.25;;;3.85;;
46455;SDS011;64052;47.466;9.094;2023-04-06T18:55:52;2.75;;;2.55;;
46455;SDS011;64052;47.466;9.094;2023-04-06T19:00:53;8.23;;;5.90;;
46455;SDS011;64052;47.466;9.094;2023-04-06T19:05:56;10.48;;;4.18;;
46455;SDS011;64052;47.466;9.094;2023-04-06T19:10:57;4.95;;;3.60;;
46455;SDS011;64052;47.466;9.094;2023-04-06T19:15:59;3.90;;;2.83;;
46455;SDS011;64052;47.466;9.094;2023-04-06T19:21:02;5.07;;;3.20;;
46455;SDS011;64052;47.466;9.094;2023-04-06T19:26:07;3.33;;;2.35;;
46455;SDS011;64052;47.466;9.094;2023-04-06T19:31:10;3.88;;;2.63;;
46455;SDS011;64052;47.466;9.094;2023-04-06T19:36:12;3.85;;;2.75;;
46455;SDS011;64052;47.466;9.094;2023-04-06T19:41:14;4.18;;;2.70;;
46455;SDS011;64052;47.466;9.094;2023-04-06T19:46:16;4.15;;;3.13;;
46455;SDS011;64052;47.466;9.094;2023-04-06T19:51:17;6.00;;;3.92;;
46455;SDS011;64052;47.466;9.094;2023-04-06T19:56:19;4.88;;;3.60;;
46455;SDS011;64052;47.466;9.094;2023-04-06T20:01:20;5.38;;;4.10;;
46455;SDS011;64052;47.466;9.094;2023-04-06T20:06:22;4.72;;;3.00;;
46455;SDS011;64052;47.466;9.094;2023-04-06T20:11:23;4.38;;;3.97;;
46455;SDS011;64052;47.466;9.094;2023-04-06T20:16:25;5.10;;;3.63;;
46455;SDS011;64052;47.466;9.094;2023-04-06T20:21:26;5.05;;;3.80;;
46455;SDS011;64052;47.466;9.094;2023-04-06T20:26:28;6.55;;;5.90;;
46455;SDS011;64052;47.466;9.094;2023-04-06T20:31:30;4.43;;;3.55;;
46455;SDS011;64052;47.466;9.094;2023-04-06T20:36:31;4.95;;;4.28;;
46455;SDS011;64052;47.466;9.094;2023-04-06T20:41:33;5.68;;;4.40;;
46455;SDS011;64052;47.466;9.094;2023-04-06T20:46:34;4.80;;;3.47;;
46455;SDS011;64052;47.466;9.094;2023-04-06T20:51:36;4.53;;;3.53;;
46455;SDS011;64052;47.466;9.094;2023-04-06T20:56:38;5.68;;;4.00;;
46455;SDS011;64052;47.466;9.094;2023-04-06T21:01:39;5.68;;;4.13;;
46455;SDS011;64052;47.466;9.094;2023-04-06T21:06:41;6.55;;;3.88;;
46455;SDS011;64052;47.466;9.094;2023-04-06T21:11:42;4.57;;;3.90;;
46455;SDS011;64052;47.466;9.094;2023-04-06T21:16:44;5.07;;;3.60;;
46455;SDS011;64052;47.466;9.094;2023-04-06T21:21:45;4.00;;;3.60;;
46455;SDS011;64052;47.466;9.094;2023-04-06T21:26:47;4.75;;;4.30;;
46455;SDS011;64052;47.466;9.094;2023-04-06T21:31:49;6.13;;;4.47;;
46455;SDS011;64052;47.466;9.094;2023-04-06T21:36:50;5.43;;;3.70;;
46455;SDS011;64052;47.466;9.094;2023-04-06T21:41:52;5.57;;;3.88;;
46455;SDS011;64052;47.466;9.094;2023-04-06T21:46:53;4.95;;;4.03;;
46455;SDS011;64052;47.466;9.094;2023-04-06T21:51:55;5.05;;;4.28;;
46455;SDS011;64052;47.466;9.094;2023-04-06T21:56:56;6.82;;;4.82;;
46455;SDS011;64052;47.466;9.094;2023-04-06T22:01:58;6.28;;;4.38;;
46455;SDS011;64052;47.466;9.094;2023-04-06T22:07:00;5.20;;;4.70;;
46455;SDS011;64052;47.466;9.094;2023-04-06T22:12:01;6.20;;;4.55;;
46455;SDS011;64052;47.466;9.094;2023-04-06T22:17:03;5.90;;;4.28;;
46455;SDS011;64052;47.466;9.094;2023-04-06T22:22:04;5.40;;;4.35;;
46455;SDS011;64052;47.466;9.094;2023-04-06T22:27:06;6.38;;;5.07;;
46455;SDS011;64052;47.466;9.094;2023-04-06T22:32:07;6.03;;;4.57;;
46455;SDS011;64052;47.466;9.094;2023-04-06T22:37:09;7.10;;;5.03;;
46455;SDS011;64052;47.466;9.094;2023-04-06T22:42:11;7.35;;;5.32;;
46455;SDS011;64052;47.466;9.094;2023-04-06T22:47:12;11.18;;;8.38;;
46455;SDS011;64052;47.466;9.094;2023-04-06T22:52:14;8.23;;;5.95;;
46455;SDS011;64052;47.466;9.094;2023-04-06T22:57:15;6.07;;;5.35;;
46455;SDS011;64052;47.466;9.094;2023-04-06T23:02:17;8.82;;;5.13;;
46455;SDS011;64052;47.466;9.094;2023-04-06T23:07:18;5.38;;;4.30;;
46455;SDS011;64052;47.466;9.094;2023-04-06T23:12:20;6.20;;;5.00;;
46455;SDS011;64052;47.466;9.094;2023-04-06T23:17:21;5.28;;;4.00;;
46455;SDS011;64052;47.466;9.094;2023-04-06T23:22:23;4.97;;;4.32;;
46455;SDS011;64052;47.466;9.094;2023-04-06T23:27:24;5.30;;;4.80;;
46455;SDS011;64052;47.466;9.094;2023-04-06T23:32:26;7.88;;;4.78;;
46455;SDS011;64052;47.466;9.094;2023-04-06T23:37:27;5.63;;;5.13;;
46455;SDS011;64052;47.466;9.094;2023-04-06T23:42:29;6.10;;;4.90;;
46455;SDS011;64052;47.466;9.094;2023-04-06T23:47:32;5.40;;;4.45;;
46455;SDS011;64052;47.466;9.094;2023-04-06T23:52:34;5.82;;;3.78;;
46455;SDS011;64052;47.466;9.094;2023-04-06T23:57:35;5.03;;;4.53;;
